North Chester, Massachusetts
Current Conditions -  °F | °C
As of 6:53 AM on Sunday 21 Dec 2014 (Local Time) from KBAF Reporting Station
Light Snow Light Snow  
Wind Chill: -4°   Ceiling: 700
Heat Index: -1°   Visibility: 1.5mi
Dew Point: -2°   Wind: 7mph
Humidity: 89%   Direction: 360°N
Pressure: 30.29"   Gusts: NA
Location:  42.3047°N, 72.879°W
Report Text: KBAF 211153Z 36006KT 1 1/2SM -SN BR BKN007 OVC020 M01/M02 A3029 RMK AO2 SLP264 P0000 60001 70001 T10061022 11006 21006 53008
Loading
Personal Weather Stations






























Interactive Weather Map New forecast layout! Learn more

10-Day Weather Forecast

Advertisements
Track Severe Weather on mobile